Terminal Aerodrome Forecast
Issued by NWS

Home | Current Version | Previous Version | Text Only | Print | Product List | Glossary On
Versions: 1 2 3 4 5 6 7 8 9 10 11 12 13 14 15 16 17 18 19 20 21
179
FTUS43 KGRR 250549 AAA
TAFAZO
TAF AMD
KAZO 250549Z 2506/2606 25008KT P6SM VCTS BKN035CB
     FM250700 26006KT P6SM BKN035
     FM250900 28006KT 6SM BR SCT040 BKN150
     FM251200 30010KT P6SM SCT250
     FM260000 29005KT P6SM SKC=

USA.gov is the U.S. government's official web portal to all federal, state and local government web resources and services.